createdAt,value
2023-05-02T00:01:32.840Z,9.70
2023-05-02T00:04:21.158Z,9.62
2023-05-02T00:07:08.914Z,9.53
2023-05-02T00:09:56.563Z,9.63
2023-05-02T00:12:44.253Z,9.45
2023-05-02T00:15:31.763Z,9.42
2023-05-02T00:18:19.915Z,9.48
2023-05-02T00:21:08.679Z,9.35
2023-05-02T00:23:57.351Z,9.43
2023-05-02T00:26:45.110Z,9.48
2023-05-02T00:29:32.762Z,9.41
2023-05-02T00:32:23.526Z,9.59
2023-05-02T00:35:11.318Z,9.55
2023-05-02T00:38:00.176Z,9.85
2023-05-02T00:40:50.103Z,9.91
2023-05-02T00:43:39.885Z,9.76
2023-05-02T00:46:28.069Z,9.63
2023-05-02T00:49:15.907Z,9.57
2023-05-02T00:52:03.668Z,9.35
2023-05-02T00:54:51.718Z,9.41
2023-05-02T00:57:39.323Z,9.45
2023-05-02T01:00:41.325Z,9.33
2023-05-02T01:03:37.664Z,9.36
2023-05-02T01:06:32.148Z,9.43
2023-05-02T01:09:40.434Z,9.42
2023-05-02T01:12:41.861Z,9.37
2023-05-02T01:15:31.893Z,9.30
2023-05-02T01:18:24.315Z,9.32
2023-05-02T01:21:13.052Z,9.37
2023-05-02T01:24:26.697Z,9.45
2023-05-02T01:27:29.147Z,9.37
2023-05-02T01:30:19.240Z,9.35
2023-05-02T01:33:10.795Z,9.13
2023-05-02T01:36:01.868Z,9.26
2023-05-02T01:38:50.868Z,9.21
2023-05-02T01:41:42.052Z,9.16
2023-05-02T01:44:31.281Z,9.20
2023-05-02T01:47:22.707Z,9.05
2023-05-02T01:50:17.091Z,9.05
2023-05-02T01:53:09.191Z,9.28
2023-05-02T01:56:02.289Z,9.24
2023-05-02T01:58:52.991Z,9.22
2023-05-02T02:01:43.770Z,9.23
2023-05-02T02:04:33.470Z,9.25
2023-05-02T02:07:21.652Z,9.40
2023-05-02T02:10:09.576Z,9.36
2023-05-02T02:13:26.784Z,9.48
2023-05-02T02:16:21.952Z,9.30
2023-05-02T02:19:15.679Z,9.33
2023-05-02T02:22:05.504Z,9.36
2023-05-02T02:24:54.794Z,8.82
2023-05-02T02:27:43.324Z,9.16
2023-05-02T02:30:31.061Z,9.14
2023-05-02T02:33:20.844Z,9.10
2023-05-02T02:36:25.099Z,9.07
2023-05-02T02:39:27.747Z,8.93
2023-05-02T02:42:36.387Z,8.80
2023-05-02T02:45:32.557Z,8.77
2023-05-02T02:48:33.471Z,8.71
2023-05-02T02:51:32.368Z,8.72
2023-05-02T02:54:32.658Z,8.84
2023-05-02T02:57:35.978Z,8.80
2023-05-02T03:00:27.701Z,8.82
2023-05-02T03:03:16.699Z,8.77
2023-05-02T03:06:05.884Z,8.80
2023-05-02T03:08:53.882Z,8.09
2023-05-02T03:11:51.248Z,8.49
2023-05-02T03:14:40.015Z,8.49
2023-05-02T03:17:27.884Z,8.53
2023-05-02T03:20:21.801Z,8.39
2023-05-02T03:23:09.713Z,8.50
2023-05-02T03:25:57.425Z,8.63
2023-05-02T03:28:47.192Z,8.61
2023-05-02T03:31:40.354Z,8.81
2023-05-02T03:34:28.027Z,8.91
2023-05-02T03:37:16.423Z,8.98
2023-05-02T03:40:04.309Z,9.00
2023-05-02T03:42:52.021Z,8.95
2023-05-02T03:45:48.160Z,9.05
2023-05-02T03:48:41.944Z,9.12
2023-05-02T03:51:34.115Z,9.21
2023-05-02T03:54:22.389Z,9.30
2023-05-02T03:57:10.722Z,9.23
2023-05-02T04:00:01.312Z,9.40
2023-05-02T04:03:02.131Z,9.46
2023-05-02T04:05:51.903Z,9.53
2023-05-02T04:08:39.912Z,9.68
2023-05-02T04:11:27.797Z,9.85
2023-05-02T04:14:16.252Z,9.80
2023-05-02T04:17:05.220Z,9.80
2023-05-02T04:19:59.568Z,9.73
2023-05-02T04:22:50.804Z,10.35
2023-05-02T04:25:38.819Z,10.50
2023-05-02T04:28:26.605Z,10.64
2023-05-02T04:31:26.929Z,10.75
2023-05-02T04:34:28.611Z,11.13
2023-05-02T04:37:16.697Z,11.25
2023-05-02T04:40:07.037Z,11.51
2023-05-02T04:42:54.693Z,11.69
2023-05-02T04:45:45.170Z,11.80
2023-05-02T04:48:42.495Z,11.55
2023-05-02T04:51:30.866Z,11.81
2023-05-02T04:54:19.548Z,12.23
2023-05-02T04:57:08.263Z,12.44
2023-05-02T04:59:59.732Z,12.49
2023-05-02T05:02:48.426Z,12.87
2023-05-02T05:05:37.241Z,13.13
2023-05-02T05:08:27.835Z,13.25
2023-05-02T05:11:18.489Z,14.03
2023-05-02T05:14:06.313Z,14.64
2023-05-02T05:16:58.468Z,15.10
2023-05-02T05:19:46.866Z,15.66
2023-05-02T05:22:39.901Z,15.46
2023-05-02T05:25:30.312Z,15.56
2023-05-02T05:28:19.434Z,15.82
2023-05-02T05:31:09.587Z,15.82
2023-05-02T05:33:58.385Z,15.62
2023-05-02T05:36:49.848Z,15.91
2023-05-02T05:39:38.303Z,16.41
2023-05-02T05:42:27.327Z,16.90
2023-05-02T05:45:19.980Z,17.11
2023-05-02T05:48:08.207Z,17.51
2023-05-02T05:51:06.207Z,18.02
2023-05-02T05:53:54.206Z,17.46
2023-05-02T05:56:41.846Z,17.87
2023-05-02T05:59:36.595Z,18.31
2023-05-02T06:02:25.614Z,18.90
2023-05-02T06:05:13.607Z,19.00
2023-05-02T06:08:01.338Z,18.81
2023-05-02T06:10:48.961Z,18.94
2023-05-02T06:13:36.695Z,19.04
2023-05-02T06:16:24.791Z,19.51
2023-05-02T06:19:12.577Z,19.61
2023-05-02T06:22:00.234Z,19.76
2023-05-02T06:24:48.062Z,19.62
2023-05-02T06:27:36.143Z,20.77
2023-05-02T06:30:23.902Z,20.65
2023-05-02T06:33:12.636Z,20.37
2023-05-02T06:36:01.858Z,21.32
2023-05-02T06:38:50.012Z,21.13
2023-05-02T06:41:37.716Z,21.10
2023-05-02T06:44:25.803Z,21.42
2023-05-02T06:47:13.558Z,21.75
2023-05-02T06:50:01.615Z,21.55
2023-05-02T06:52:49.642Z,21.72
2023-05-02T06:55:37.325Z,21.80
2023-05-02T06:58:25.089Z,21.79
2023-05-02T07:01:13.297Z,21.90
2023-05-02T07:04:04.691Z,21.40
2023-05-02T07:06:54.692Z,21.78
2023-05-02T07:09:42.414Z,21.71
2023-05-02T07:12:30.309Z,22.19
2023-05-02T07:15:18.295Z,22.88
2023-05-02T07:18:06.605Z,22.60
2023-05-02T07:20:55.369Z,23.52
2023-05-02T07:23:44.108Z,23.02
2023-05-02T07:26:31.671Z,22.83
2023-05-02T07:29:19.340Z,23.12
2023-05-02T07:32:07.122Z,23.60
2023-05-02T07:34:56.368Z,23.68
2023-05-02T07:37:44.096Z,24.09
2023-05-02T07:40:31.861Z,23.79
2023-05-02T07:43:19.505Z,23.89
2023-05-02T07:46:07.214Z,23.80
2023-05-02T07:48:54.987Z,24.20
2023-05-02T07:51:42.966Z,24.77
2023-05-02T07:54:30.629Z,24.56
2023-05-02T07:57:19.063Z,24.35
2023-05-02T08:00:10.392Z,24.21
2023-05-02T08:03:00.896Z,23.53
2023-05-02T08:05:48.778Z,24.43
2023-05-02T08:08:37.224Z,24.65
2023-05-02T08:11:25.814Z,24.77
2023-05-02T08:14:14.384Z,24.82
2023-05-02T08:17:02.024Z,25.40
2023-05-02T08:19:49.685Z,24.13
2023-05-02T08:22:37.694Z,24.64
2023-05-02T08:25:25.489Z,25.44
2023-05-02T08:28:13.447Z,25.37
2023-05-02T08:31:01.225Z,25.45
2023-05-02T08:33:49.128Z,25.36
2023-05-02T08:36:37.500Z,25.56
2023-05-02T08:39:25.127Z,25.81
2023-05-02T08:42:12.811Z,26.09
2023-05-02T08:45:01.546Z,26.32
2023-05-02T08:47:51.019Z,26.60
2023-05-02T08:50:45.658Z,27.02
2023-05-02T08:53:35.451Z,27.16
2023-05-02T08:56:23.720Z,27.22
2023-05-02T08:59:11.497Z,26.97
2023-05-02T09:02:09.059Z,27.01
2023-05-02T09:05:00.475Z,27.04
2023-05-02T09:07:48.836Z,26.84
2023-05-02T09:10:37.850Z,26.65
2023-05-02T09:13:38.920Z,26.51
2023-05-02T09:16:27.453Z,26.94
2023-05-02T09:19:28.393Z,26.88
2023-05-02T09:22:24.133Z,26.23
2023-05-02T09:25:11.916Z,27.18
2023-05-02T09:28:02.026Z,27.68
2023-05-02T09:30:49.718Z,27.55
2023-05-02T09:33:39.092Z,27.71
2023-05-02T09:36:26.729Z,27.61
2023-05-02T09:39:20.150Z,27.20
2023-05-02T09:42:13.366Z,27.34
2023-05-02T09:45:01.361Z,27.42
2023-05-02T09:47:50.278Z,27.67
2023-05-02T09:50:40.211Z,27.33
2023-05-02T09:53:28.820Z,27.93
2023-05-02T09:56:17.846Z,27.24
2023-05-02T09:59:15.774Z,27.61
2023-05-02T10:02:04.950Z,27.87
2023-05-02T10:04:54.450Z,28.35
2023-05-02T10:07:42.255Z,28.68
2023-05-02T10:10:34.891Z,28.97
2023-05-02T10:13:27.317Z,28.37
2023-05-02T10:16:23.930Z,28.08
2023-05-02T10:19:13.501Z,28.34
2023-05-02T10:22:02.609Z,28.16
2023-05-02T10:24:50.886Z,28.35
2023-05-02T10:27:38.762Z,28.53
2023-05-02T10:30:27.162Z,27.14
2023-05-02T10:33:16.291Z,27.89
2023-05-02T10:36:04.650Z,27.07
2023-05-02T10:38:52.833Z,28.12
2023-05-02T10:41:42.230Z,27.47
2023-05-02T10:44:41.293Z,27.60
2023-05-02T10:47:29.140Z,27.68
2023-05-02T10:50:17.362Z,27.81
2023-05-02T10:53:23.465Z,28.10
2023-05-02T10:56:21.371Z,28.51
2023-05-02T10:59:41.599Z,28.33
2023-05-02T11:02:32.349Z,28.28
2023-05-02T11:05:20.168Z,28.26
2023-05-02T11:08:19.383Z,28.44
2023-05-02T11:11:56.675Z,28.42
2023-05-02T11:14:47.745Z,28.68
2023-05-02T11:18:12.210Z,28.77
2023-05-02T11:21:29.049Z,29.26
2023-05-02T11:24:45.422Z,28.52
2023-05-02T11:27:33.922Z,28.28
2023-05-02T11:30:41.906Z,28.92
2023-05-02T11:33:29.937Z,28.36
2023-05-02T11:36:31.198Z,28.58
2023-05-02T11:39:20.560Z,28.53
2023-05-02T11:42:08.314Z,28.14
2023-05-02T11:45:00.889Z,28.54
2023-05-02T11:47:49.670Z,28.81
2023-05-02T11:50:50.390Z,28.98
2023-05-02T11:53:41.674Z,28.68
2023-05-02T11:56:29.423Z,28.17
2023-05-02T11:59:17.197Z,28.88
2023-05-02T12:02:04.873Z,28.21
2023-05-02T12:04:52.563Z,28.43
2023-05-02T12:07:42.521Z,28.51
2023-05-02T12:10:37.948Z,28.17
2023-05-02T12:13:27.223Z,28.34
2023-05-02T12:16:15.498Z,28.44
2023-05-02T12:19:04.528Z,27.42
2023-05-02T12:21:53.124Z,28.00
2023-05-02T12:24:41.542Z,27.76
2023-05-02T12:27:29.666Z,27.87
2023-05-02T12:30:27.937Z,28.28
2023-05-02T12:33:17.432Z,28.50
2023-05-02T12:36:09.872Z,28.31
2023-05-02T12:39:02.843Z,28.52
2023-05-02T12:41:50.688Z,28.44
2023-05-02T12:44:40.874Z,28.39
2023-05-02T12:47:28.799Z,27.73
2023-05-02T12:50:16.805Z,27.80
2023-05-02T12:53:05.046Z,27.77
2023-05-02T12:56:04.010Z,27.85
2023-05-02T12:58:51.804Z,27.82
2023-05-02T13:01:39.591Z,27.94
2023-05-02T13:04:41.700Z,28.16
2023-05-02T13:07:29.585Z,27.83
2023-05-02T13:10:20.328Z,27.73
2023-05-02T13:13:08.022Z,27.66
2023-05-02T13:15:55.790Z,27.59
2023-05-02T13:18:45.448Z,27.82
2023-05-02T13:21:34.854Z,27.93
2023-05-02T13:24:22.562Z,27.70
2023-05-02T13:27:10.198Z,27.86
2023-05-02T13:30:02.717Z,27.70
2023-05-02T13:32:52.881Z,27.88
2023-05-02T13:35:40.671Z,27.71
2023-05-02T13:38:28.348Z,27.34
2023-05-02T13:41:16.085Z,26.98
2023-05-02T13:44:03.951Z,26.92
2023-05-02T13:46:51.640Z,26.96
2023-05-02T13:49:39.315Z,26.56
2023-05-02T13:52:27.033Z,26.57
2023-05-02T13:55:14.677Z,26.54
2023-05-02T13:58:02.920Z,26.84
2023-05-02T14:00:50.662Z,26.55
2023-05-02T14:03:38.357Z,26.25
2023-05-02T14:06:26.904Z,26.44
2023-05-02T14:09:15.860Z,26.12
2023-05-02T14:12:03.630Z,25.91
2023-05-02T14:14:51.254Z,25.92
2023-05-02T14:17:39.099Z,25.69
2023-05-02T14:20:26.849Z,25.45
2023-05-02T14:23:14.556Z,25.63
2023-05-02T14:26:02.870Z,25.68
2023-05-02T14:28:53.255Z,25.62
2023-05-02T14:31:41.461Z,25.53
2023-05-02T14:34:29.263Z,25.35
2023-05-02T14:37:16.930Z,25.55
2023-05-02T14:40:05.297Z,25.67
2023-05-02T14:42:53.132Z,25.70
2023-05-02T14:45:40.857Z,25.36
2023-05-02T14:48:28.544Z,25.38
2023-05-02T14:51:16.300Z,25.58
2023-05-02T14:54:05.397Z,25.49
2023-05-02T14:56:55.517Z,25.29
2023-05-02T14:59:45.776Z,25.42
2023-05-02T15:02:34.271Z,25.46
2023-05-02T15:05:22.129Z,25.27
2023-05-02T15:08:09.980Z,25.37
2023-05-02T15:10:58.875Z,25.21
2023-05-02T15:13:46.556Z,25.18
2023-05-02T15:16:34.596Z,25.07
2023-05-02T15:19:24.284Z,24.90
2023-05-02T15:22:12.111Z,24.58
2023-05-02T15:25:00.510Z,24.52
2023-05-02T15:27:48.892Z,24.52
2023-05-02T15:30:36.722Z,24.43
2023-05-02T15:33:24.544Z,24.38
2023-05-02T15:36:12.450Z,24.38
2023-05-02T15:39:00.198Z,24.29
2023-05-02T15:41:48.145Z,24.14
2023-05-02T15:44:39.113Z,24.13
2023-05-02T15:47:30.135Z,24.13
2023-05-02T15:50:24.414Z,24.08
2023-05-02T15:53:12.181Z,23.82
2023-05-02T15:55:59.918Z,23.89
2023-05-02T15:58:47.771Z,23.72
2023-05-02T16:01:35.611Z,23.73
2023-05-02T16:04:23.492Z,23.04
2023-05-02T16:07:11.671Z,23.56
2023-05-02T16:09:59.492Z,23.36
2023-05-02T16:12:47.294Z,23.16
2023-05-02T16:15:35.016Z,23.23
2023-05-02T16:18:28.658Z,23.09
2023-05-02T16:21:17.361Z,23.13
2023-05-02T16:24:05.835Z,22.91
2023-05-02T16:26:56.177Z,22.69
2023-05-02T16:29:45.056Z,22.63
2023-05-02T16:32:37.603Z,22.47
2023-05-02T16:35:25.559Z,22.31
2023-05-02T16:38:13.388Z,22.15
2023-05-02T16:41:04.509Z,22.02
2023-05-02T16:43:52.245Z,21.86
2023-05-02T16:46:39.897Z,21.76
2023-05-02T16:49:27.642Z,21.64
2023-05-02T16:52:15.396Z,21.56
2023-05-02T16:55:03.036Z,21.32
2023-05-02T16:57:51.035Z,21.40
2023-05-02T17:00:40.602Z,21.27
2023-05-02T17:03:29.704Z,21.15
2023-05-02T17:06:17.785Z,20.93
2023-05-02T17:09:06.463Z,20.57
2023-05-02T17:11:54.110Z,20.82
2023-05-02T17:14:42.968Z,20.68
2023-05-02T17:17:31.194Z,20.47
2023-05-02T17:20:20.557Z,20.40
2023-05-02T17:23:09.390Z,20.23
2023-05-02T17:25:57.268Z,20.04
2023-05-02T17:28:46.088Z,19.84
2023-05-02T17:31:33.919Z,19.88
2023-05-02T17:34:26.176Z,19.65
2023-05-02T17:37:20.306Z,19.58
2023-05-02T17:40:08.716Z,19.46
2023-05-02T17:42:58.860Z,19.45
2023-05-02T17:45:46.757Z,19.30
2023-05-02T17:48:34.615Z,19.14
2023-05-02T17:51:23.384Z,19.16
2023-05-02T17:54:11.473Z,19.05
2023-05-02T17:56:59.406Z,19.02
2023-05-02T17:59:47.200Z,18.88
2023-05-02T18:02:37.528Z,18.77
2023-05-02T18:05:28.698Z,18.73
2023-05-02T18:08:16.892Z,18.63
2023-05-02T18:11:04.632Z,18.36
2023-05-02T18:13:52.692Z,18.41
2023-05-02T18:16:41.906Z,18.46
2023-05-02T18:19:29.749Z,18.20
2023-05-02T18:22:21.809Z,17.99
2023-05-02T18:25:09.788Z,18.02
2023-05-02T18:27:57.524Z,17.98
2023-05-02T18:30:45.282Z,17.89
2023-05-02T18:33:32.946Z,17.83
2023-05-02T18:36:29.906Z,17.78
2023-05-02T18:39:17.577Z,17.78
2023-05-02T18:42:05.712Z,17.62
2023-05-02T18:44:53.635Z,17.66
2023-05-02T18:47:44.135Z,17.50
2023-05-02T18:50:31.882Z,17.44
2023-05-02T18:53:22.849Z,17.34
2023-05-02T18:56:14.719Z,17.20
2023-05-02T18:59:02.426Z,16.93
2023-05-02T19:01:50.247Z,16.90
2023-05-02T19:04:38.052Z,16.79
2023-05-02T19:07:25.840Z,16.72
2023-05-02T19:10:13.621Z,16.68
2023-05-02T19:13:02.099Z,16.68
2023-05-02T19:15:49.870Z,16.54
2023-05-02T19:18:37.784Z,16.34
2023-05-02T19:21:26.043Z,16.43
2023-05-02T19:24:13.865Z,16.25
2023-05-02T19:27:01.616Z,16.40
2023-05-02T19:29:56.124Z,16.24
2023-05-02T19:32:43.946Z,16.13
2023-05-02T19:35:34.218Z,15.91
2023-05-02T19:38:22.274Z,15.85
2023-05-02T19:41:10.100Z,15.80
2023-05-02T19:43:59.133Z,15.79
2023-05-02T19:46:46.841Z,15.78
2023-05-02T19:49:34.710Z,15.79
2023-05-02T19:52:22.345Z,15.77
2023-05-02T19:55:10.188Z,15.63
2023-05-02T19:58:00.260Z,15.63
2023-05-02T20:00:50.309Z,15.35
2023-05-02T20:03:38.428Z,15.35
2023-05-02T20:06:26.749Z,15.30
2023-05-02T20:09:14.474Z,15.25
2023-05-02T20:12:02.213Z,15.04
2023-05-02T20:14:49.881Z,15.23
2023-05-02T20:17:37.738Z,15.19
2023-05-02T20:20:25.606Z,15.17
2023-05-02T20:23:13.771Z,15.15
2023-05-02T20:26:01.460Z,14.98
2023-05-02T20:28:49.072Z,15.05
2023-05-02T20:31:36.915Z,15.11
2023-05-02T20:34:24.612Z,14.94
2023-05-02T20:37:12.867Z,14.85
2023-05-02T20:40:05.638Z,14.77
2023-05-02T20:42:54.842Z,14.89
2023-05-02T20:45:42.661Z,14.68
2023-05-02T20:48:30.453Z,14.77
2023-05-02T20:51:18.107Z,14.83
2023-05-02T20:54:05.909Z,14.86
2023-05-02T20:56:53.667Z,14.81
2023-05-02T20:59:44.484Z,14.77
2023-05-02T21:02:32.419Z,14.71
2023-05-02T21:05:22.058Z,14.65
2023-05-02T21:08:09.776Z,14.58
2023-05-02T21:10:57.452Z,14.42
2023-05-02T21:13:45.138Z,14.28
2023-05-02T21:16:36.917Z,14.42
2023-05-02T21:19:24.668Z,14.26
2023-05-02T21:22:12.404Z,14.15
2023-05-02T21:25:05.978Z,14.12
2023-05-02T21:27:53.704Z,14.10
2023-05-02T21:30:41.454Z,14.05
2023-05-02T21:33:29.286Z,14.06
2023-05-02T21:36:16.934Z,13.98
2023-05-02T21:39:05.636Z,14.04
2023-05-02T21:41:53.405Z,14.02
2023-05-02T21:44:41.147Z,13.88
2023-05-02T21:47:28.882Z,13.83
2023-05-02T21:50:16.625Z,13.80
2023-05-02T21:53:04.349Z,13.57
2023-05-02T21:55:52.690Z,13.79
2023-05-02T21:58:40.390Z,13.70
2023-05-02T22:01:28.189Z,13.80
2023-05-02T22:04:16.505Z,13.60
2023-05-02T22:07:04.281Z,13.50
2023-05-02T22:09:52.011Z,13.21
2023-05-02T22:12:39.673Z,13.27
2023-05-02T22:15:27.598Z,13.32
2023-05-02T22:18:16.998Z,13.34
2023-05-02T22:21:04.752Z,13.36
2023-05-02T22:23:52.392Z,13.28
2023-05-02T22:26:40.175Z,13.23
2023-05-02T22:29:27.954Z,13.13
2023-05-02T22:32:15.841Z,13.00
2023-05-02T22:35:05.374Z,13.04
2023-05-02T22:37:53.023Z,12.99
2023-05-02T22:40:41.247Z,12.72
2023-05-02T22:43:28.957Z,12.80
2023-05-02T22:46:17.558Z,12.66
2023-05-02T22:49:06.346Z,12.89
2023-05-02T22:51:58.189Z,12.84
2023-05-02T22:54:46.019Z,12.67
2023-05-02T22:57:33.752Z,12.65
2023-05-02T23:00:24.028Z,12.83
2023-05-02T23:03:12.152Z,12.67
2023-05-02T23:06:00.152Z,12.68
2023-05-02T23:08:47.970Z,12.63
2023-05-02T23:11:35.662Z,12.73
2023-05-02T23:14:23.634Z,12.65
2023-05-02T23:17:11.400Z,12.73
2023-05-02T23:20:02.128Z,12.62
2023-05-02T23:22:50.132Z,12.53
2023-05-02T23:25:38.925Z,12.58
2023-05-02T23:28:26.624Z,12.45
2023-05-02T23:31:14.515Z,12.55
2023-05-02T23:34:02.372Z,12.63
2023-05-02T23:36:52.841Z,12.57
2023-05-02T23:39:41.228Z,12.65
2023-05-02T23:42:30.300Z,12.54
2023-05-02T23:45:18.028Z,12.47
2023-05-02T23:48:06.081Z,12.42
2023-05-02T23:50:54.288Z,12.34
2023-05-02T23:53:42.010Z,12.29
2023-05-02T23:56:29.741Z,12.22
2023-05-02T23:59:17.542Z,12.22
